createdAt,value
2018-09-01T00:00:46.540Z,99.90
2018-09-01T00:03:15.148Z,99.90
2018-09-01T00:05:43.888Z,99.90
2018-09-01T00:08:12.627Z,99.90
2018-09-01T00:10:41.902Z,99.90
2018-09-01T00:13:10.796Z,99.90
2018-09-01T00:15:39.326Z,99.90
2018-09-01T00:18:08.257Z,99.90
2018-09-01T00:20:36.918Z,99.90
2018-09-01T00:23:05.721Z,99.90
2018-09-01T00:25:34.536Z,99.90
2018-09-01T00:28:03.193Z,99.90
2018-09-01T00:30:32.642Z,99.90
2018-09-01T00:33:01.292Z,99.90
2018-09-01T00:35:29.952Z,99.90
2018-09-01T00:38:03.919Z,99.90
2018-09-01T00:40:33.475Z,99.90
2018-09-01T00:43:02.070Z,99.90
2018-09-01T00:45:30.862Z,99.90
2018-09-01T00:47:59.599Z,99.90
2018-09-01T00:50:28.995Z,99.90
2018-09-01T00:52:57.630Z,99.90
2018-09-01T00:55:32.546Z,99.90
2018-09-01T00:58:01.790Z,99.90
2018-09-01T01:00:30.356Z,99.90
2018-09-01T01:02:59.133Z,99.90
2018-09-01T01:05:27.709Z,99.90
2018-09-01T01:07:56.468Z,99.90
2018-09-01T01:10:25.077Z,99.90
2018-09-01T01:12:53.753Z,99.90
2018-09-01T01:15:22.487Z,99.90
2018-09-01T01:17:51.273Z,99.90
2018-09-01T01:20:19.804Z,99.90
2018-09-01T01:22:48.379Z,99.90
2018-09-01T01:25:17.124Z,99.90
2018-09-01T01:27:46.027Z,99.90
2018-09-01T01:30:14.745Z,99.90
2018-09-01T01:32:43.283Z,99.90
2018-09-01T01:35:12.283Z,99.90
2018-09-01T01:37:41.047Z,99.90
2018-09-01T01:40:09.743Z,99.90
2018-09-01T01:42:38.931Z,99.90
2018-09-01T01:45:08.157Z,99.90
2018-09-01T01:47:41.236Z,99.90
2018-09-01T01:50:11.188Z,99.90
2018-09-01T01:52:39.717Z,99.90
2018-09-01T01:55:09.117Z,99.90
2018-09-01T01:57:43.102Z,99.90
2018-09-01T02:00:11.960Z,99.90
2018-09-01T02:02:40.640Z,99.90
2018-09-01T02:05:10.491Z,99.90
2018-09-01T02:07:40.204Z,99.90
2018-09-01T02:10:09.180Z,99.90
2018-09-01T02:12:38.573Z,99.90
2018-09-01T02:15:07.822Z,99.90
2018-09-01T02:17:36.385Z,99.90
2018-09-01T02:20:05.428Z,99.90
2018-09-01T02:22:33.909Z,99.90
2018-09-01T02:25:02.536Z,99.90
2018-09-01T02:27:31.119Z,99.90
2018-09-01T02:30:00.049Z,99.90
2018-09-01T02:32:28.612Z,99.90
2018-09-01T02:34:57.212Z,99.90
2018-09-01T02:37:25.897Z,99.90
2018-09-01T02:39:54.555Z,99.90
2018-09-01T02:42:23.075Z,99.90
2018-09-01T02:44:51.599Z,99.90
2018-09-01T02:47:20.679Z,99.90
2018-09-01T02:49:49.519Z,99.90
2018-09-01T02:52:18.924Z,99.90
2018-09-01T02:54:48.271Z,99.90
2018-09-01T02:57:17.665Z,99.90
2018-09-01T02:59:46.147Z,99.90
2018-09-01T03:02:19.191Z,99.90
2018-09-01T03:04:48.268Z,99.90
2018-09-01T03:07:16.926Z,99.90
2018-09-01T03:09:46.107Z,99.90
2018-09-01T03:12:14.729Z,99.90
2018-09-01T03:14:44.067Z,99.90
2018-09-01T03:17:12.688Z,99.90
2018-09-01T03:19:41.165Z,99.90
2018-09-01T03:22:09.771Z,99.90
2018-09-01T03:24:39.104Z,99.90
2018-09-01T03:27:07.921Z,99.90
2018-09-01T03:29:36.501Z,99.90
2018-09-01T03:32:05.300Z,99.90
2018-09-01T03:34:34.664Z,99.90
2018-09-01T03:37:03.896Z,99.90
2018-09-01T03:39:32.566Z,99.90
2018-09-01T03:42:01.556Z,99.90
2018-09-01T03:44:30.065Z,99.90
2018-09-01T03:46:58.720Z,99.90
2018-09-01T03:49:28.364Z,99.90
2018-09-01T03:51:57.047Z,99.90
2018-09-01T03:54:26.873Z,99.90
2018-09-01T03:56:55.832Z,99.90
2018-09-01T03:59:24.770Z,99.90
2018-09-01T04:01:53.307Z,99.90
2018-09-01T04:04:22.205Z,99.90
2018-09-01T04:06:50.719Z,99.90
2018-09-01T04:09:19.766Z,99.90
2018-09-01T04:11:48.272Z,99.90
2018-09-01T04:14:16.844Z,99.90
2018-09-01T04:16:45.841Z,99.90
2018-09-01T04:19:18.108Z,99.90
2018-09-01T04:21:49.061Z,99.90
2018-09-01T04:24:18.025Z,99.90
2018-09-01T04:26:47.703Z,99.90
2018-09-01T04:29:17.168Z,99.90
2018-09-01T04:31:46.376Z,99.90
2018-09-01T04:34:15.082Z,99.90
2018-09-01T04:36:44.581Z,99.90
2018-09-01T04:39:13.867Z,99.90
2018-09-01T04:41:43.239Z,99.90
2018-09-01T04:44:12.355Z,99.90
2018-09-01T04:46:41.560Z,99.90
2018-09-01T04:49:10.828Z,99.90
2018-09-01T04:51:39.558Z,99.90
2018-09-01T04:54:08.214Z,99.90
2018-09-01T04:56:37.341Z,99.90
2018-09-01T04:59:06.524Z,99.90
2018-09-01T05:01:35.063Z,99.90
2018-09-01T05:04:03.639Z,99.90
2018-09-01T05:06:32.227Z,99.90
2018-09-01T05:09:01.466Z,99.90
2018-09-01T05:11:30.614Z,99.90
2018-09-01T05:13:59.980Z,99.90
2018-09-01T05:16:29.356Z,99.90
2018-09-01T05:18:57.953Z,99.90
2018-09-01T05:21:26.465Z,99.90
2018-09-01T05:23:55.068Z,99.90
2018-09-01T05:26:23.752Z,99.90
2018-09-01T05:28:52.296Z,99.90
2018-09-01T05:31:20.896Z,99.90
2018-09-01T05:33:49.704Z,99.90
2018-09-01T05:36:18.279Z,99.90
2018-09-01T05:38:47.559Z,99.90
2018-09-01T05:41:16.185Z,99.90
2018-09-01T05:43:45.995Z,99.90
2018-09-01T05:46:14.471Z,99.90
2018-09-01T05:48:43.268Z,99.90
2018-09-01T05:51:12.052Z,99.90
2018-09-01T05:53:40.974Z,99.90
2018-09-01T05:56:09.668Z,99.90
2018-09-01T05:58:38.368Z,99.90
2018-09-01T06:01:07.343Z,99.90
2018-09-01T06:03:35.887Z,99.90
2018-09-01T06:06:04.693Z,99.90
2018-09-01T06:08:33.961Z,99.90
2018-09-01T06:11:02.797Z,99.90
2018-09-01T06:13:31.512Z,99.90
2018-09-01T06:16:00.705Z,99.90
2018-09-01T06:18:29.606Z,99.90
2018-09-01T06:20:58.209Z,99.90
2018-09-01T06:23:27.368Z,99.90
2018-09-01T06:25:55.908Z,99.90
2018-09-01T06:28:27.762Z,99.90
2018-09-01T06:30:57.101Z,99.90
2018-09-01T06:33:26.189Z,99.90
2018-09-01T06:35:55.574Z,99.90
2018-09-01T06:38:24.543Z,99.90
2018-09-01T06:40:53.774Z,99.90
2018-09-01T06:43:23.110Z,99.90
2018-09-01T06:45:51.980Z,99.90
2018-09-01T06:48:20.941Z,99.90
2018-09-01T06:50:49.767Z,99.90
2018-09-01T06:53:18.431Z,99.90
2018-09-01T06:55:47.213Z,99.90
2018-09-01T06:58:15.749Z,99.90
2018-09-01T07:00:44.888Z,99.90
2018-09-01T07:03:13.904Z,99.90
2018-09-01T07:05:43.804Z,99.90
2018-09-01T07:08:12.409Z,99.90
2018-09-01T07:10:41.259Z,99.90
2018-09-01T07:13:09.869Z,99.90
2018-09-01T07:15:39.197Z,99.90
2018-09-01T07:18:08.275Z,99.90
2018-09-01T07:20:37.062Z,99.90
2018-09-01T07:23:05.952Z,99.90
2018-09-01T07:25:34.693Z,99.90
2018-09-01T07:28:03.380Z,99.90
2018-09-01T07:30:32.207Z,99.90
2018-09-01T07:33:00.710Z,99.90
2018-09-01T07:35:29.463Z,99.90
2018-09-01T07:37:58.905Z,99.90
2018-09-01T07:40:28.399Z,99.90
2018-09-01T07:42:56.979Z,99.90
2018-09-01T07:45:25.801Z,99.90
2018-09-01T07:47:54.674Z,99.90
2018-09-01T07:50:23.357Z,99.90
2018-09-01T07:52:51.898Z,99.90
2018-09-01T07:55:20.687Z,99.90
2018-09-01T07:57:49.977Z,99.90
2018-09-01T08:00:19.164Z,99.90
2018-09-01T08:02:48.426Z,99.90
2018-09-01T08:05:17.256Z,99.90
2018-09-01T08:07:47.013Z,99.90
2018-09-01T08:10:16.056Z,99.90
2018-09-01T08:12:44.972Z,99.90
2018-09-01T08:15:13.603Z,99.90
2018-09-01T08:17:42.215Z,99.90
2018-09-01T08:20:11.153Z,99.90
2018-09-01T08:22:40.012Z,99.90
2018-09-01T08:25:08.747Z,99.90
2018-09-01T08:27:37.421Z,99.90
2018-09-01T08:30:06.069Z,99.90
2018-09-01T08:32:35.258Z,99.90
2018-09-01T08:35:04.096Z,99.90
2018-09-01T08:37:33.396Z,99.90
2018-09-01T08:40:01.964Z,99.90
2018-09-01T08:42:30.738Z,99.90
2018-09-01T08:44:59.376Z,99.90
2018-09-01T08:47:27.989Z,99.90
2018-09-01T08:49:56.837Z,99.90
2018-09-01T08:52:25.517Z,99.90
2018-09-01T08:54:54.234Z,99.90
2018-09-01T08:57:22.720Z,99.90
2018-09-01T08:59:51.428Z,99.90
2018-09-01T09:02:20.117Z,99.90
2018-09-01T09:04:48.855Z,99.90
2018-09-01T09:07:17.465Z,99.90
2018-09-01T09:09:46.411Z,99.90
2018-09-01T09:12:15.605Z,99.90
2018-09-01T09:14:44.182Z,99.90
2018-09-01T09:17:12.856Z,99.90
2018-09-01T09:19:41.610Z,99.90
2018-09-01T09:22:10.866Z,99.90
2018-09-01T09:24:40.140Z,99.90
2018-09-01T09:27:09.555Z,99.90
2018-09-01T09:29:38.717Z,99.90
2018-09-01T09:32:07.801Z,99.90
2018-09-01T09:34:37.163Z,99.90
2018-09-01T09:37:06.201Z,99.90
2018-09-01T09:39:35.360Z,99.90
2018-09-01T09:42:04.919Z,99.90
2018-09-01T09:44:33.542Z,99.90
2018-09-01T09:47:02.351Z,99.90
2018-09-01T09:49:30.983Z,99.90
2018-09-01T09:51:59.575Z,99.90
2018-09-01T09:54:29.022Z,99.90
2018-09-01T09:56:57.981Z,99.90
2018-09-01T09:59:27.331Z,99.90
2018-09-01T10:02:00.545Z,99.90
2018-09-01T10:04:29.563Z,99.90
2018-09-01T10:06:58.441Z,99.90
2018-09-01T10:09:26.984Z,99.90
2018-09-01T10:11:56.392Z,99.90
2018-09-01T10:14:25.110Z,99.90
2018-09-01T10:16:55.041Z,99.90
2018-09-01T10:19:23.593Z,99.90
2018-09-01T10:21:52.292Z,99.90
2018-09-01T10:24:21.666Z,99.90
2018-09-01T10:26:50.768Z,99.80
2018-09-01T10:29:19.213Z,99.10
2018-09-01T10:31:47.815Z,97.60
2018-09-01T10:34:16.424Z,99.30
2018-09-01T10:36:45.395Z,98.10
2018-09-01T10:39:14.994Z,99.40
2018-09-01T10:41:43.840Z,99.90
2018-09-01T10:44:12.522Z,97.60
2018-09-01T10:46:41.182Z,95.30
2018-09-01T10:49:09.960Z,96.70
2018-09-01T10:51:38.509Z,97.50
2018-09-01T10:54:07.148Z,97.10
2018-09-01T10:56:36.143Z,95.90
2018-09-01T10:59:05.047Z,95.30
2018-09-01T11:01:33.900Z,94.00
2018-09-01T11:04:02.796Z,92.70
2018-09-01T11:06:31.340Z,91.00
2018-09-01T11:09:00.010Z,86.70
2018-09-01T11:11:28.885Z,88.30
2018-09-01T11:13:57.477Z,88.20
2018-09-01T11:16:26.312Z,87.30
2018-09-01T11:18:55.610Z,86.60
2018-09-01T11:21:24.223Z,86.60
2018-09-01T11:23:52.982Z,91.10
2018-09-01T11:26:21.509Z,88.00
2018-09-01T11:28:50.125Z,89.10
2018-09-01T11:31:18.799Z,89.30
2018-09-01T11:33:47.586Z,86.70
2018-09-01T11:36:16.288Z,82.30
2018-09-01T11:38:45.008Z,83.60
2018-09-01T11:41:13.574Z,81.40
2018-09-01T11:43:42.328Z,81.80
2018-09-01T11:46:11.084Z,83.80
2018-09-01T11:48:40.459Z,79.50
2018-09-01T11:51:09.180Z,80.60
2018-09-01T11:53:38.535Z,82.60
2018-09-01T11:56:06.976Z,76.00
2018-09-01T11:58:36.071Z,76.50
2018-09-01T12:01:04.601Z,76.50
2018-09-01T12:03:35.803Z,78.00
2018-09-01T12:06:04.477Z,79.20
2018-09-01T12:08:33.105Z,85.30
2018-09-01T12:11:02.871Z,77.00
2018-09-01T12:13:31.628Z,78.00
2018-09-01T12:16:00.368Z,79.00
2018-09-01T12:18:29.283Z,77.40
2018-09-01T12:20:58.075Z,77.70
2018-09-01T12:23:26.771Z,78.00
2018-09-01T12:25:55.595Z,77.50
2018-09-01T12:28:24.675Z,78.80
2018-09-01T12:30:54.180Z,81.60
2018-09-01T12:33:22.893Z,81.10
2018-09-01T12:35:51.774Z,78.70
2018-09-01T12:38:20.923Z,77.70
2018-09-01T12:40:49.540Z,78.30
2018-09-01T12:43:18.218Z,78.10
2018-09-01T12:45:46.911Z,76.30
2018-09-01T12:48:16.656Z,73.20
2018-09-01T12:50:45.461Z,73.90
2018-09-01T12:53:14.119Z,71.90
2018-09-01T12:55:42.789Z,72.50
2018-09-01T12:58:11.287Z,70.00
2018-09-01T13:00:40.396Z,68.30
2018-09-01T13:03:09.247Z,72.00
2018-09-01T13:05:38.190Z,67.90
2018-09-01T13:08:06.933Z,66.60
2018-09-01T13:10:35.876Z,67.00
2018-09-01T13:13:05.527Z,64.30
2018-09-01T13:15:34.376Z,62.70
2018-09-01T13:18:03.783Z,63.40
2018-09-01T13:20:32.723Z,67.00
2018-09-01T13:23:01.409Z,67.40
2018-09-01T13:25:30.390Z,69.10
2018-09-01T13:27:59.085Z,69.60
2018-09-01T13:30:27.755Z,68.00
2018-09-01T13:32:56.552Z,69.80
2018-09-01T13:35:25.202Z,69.30
2018-09-01T13:37:54.679Z,68.50
2018-09-01T13:40:23.385Z,70.70
2018-09-01T13:42:52.141Z,66.70
2018-09-01T13:45:20.730Z,66.90
2018-09-01T13:47:50.303Z,67.80
2018-09-01T13:50:19.884Z,68.20
2018-09-01T13:52:48.675Z,66.40
2018-09-01T13:55:18.043Z,66.80
2018-09-01T13:57:46.776Z,65.30
2018-09-01T14:00:15.714Z,65.50
2018-09-01T14:02:44.890Z,67.30
2018-09-01T14:05:13.815Z,69.10
2018-09-01T14:07:42.612Z,67.40
2018-09-01T14:10:11.528Z,67.40
2018-09-01T14:12:40.571Z,67.00
2018-09-01T14:15:09.419Z,68.30
2018-09-01T14:17:38.713Z,66.70
2018-09-01T14:20:08.341Z,67.10
2018-09-01T14:22:37.596Z,64.00
2018-09-01T14:25:06.696Z,64.10
2018-09-01T14:27:36.001Z,67.00
2018-09-01T14:30:05.783Z,66.20
2018-09-01T14:32:34.453Z,64.20
2018-09-01T14:35:03.125Z,64.80
2018-09-01T14:37:32.474Z,64.90
2018-09-01T14:40:01.020Z,62.30
2018-09-01T14:42:29.638Z,63.50
2018-09-01T14:44:58.455Z,62.50
2018-09-01T14:47:27.364Z,63.90
2018-09-01T14:49:56.095Z,63.20
2018-09-01T14:52:24.881Z,65.90
2018-09-01T14:54:53.806Z,65.70
2018-09-01T14:57:22.722Z,63.60
2018-09-01T14:59:51.461Z,64.30
2018-09-01T15:02:20.726Z,64.50
2018-09-01T15:04:50.309Z,63.50
2018-09-01T15:07:19.688Z,63.90
2018-09-01T15:09:49.085Z,61.70
2018-09-01T15:12:18.139Z,62.00
2018-09-01T15:14:47.382Z,64.80
2018-09-01T15:17:16.545Z,60.10
2018-09-01T15:19:45.826Z,59.60
2018-09-01T15:22:14.703Z,58.50
2018-09-01T15:24:44.262Z,59.10
2018-09-01T15:27:13.146Z,60.00
2018-09-01T15:29:41.805Z,53.90
2018-09-01T15:32:11.127Z,52.60
2018-09-01T15:34:39.830Z,53.10
2018-09-01T15:37:08.437Z,52.00
2018-09-01T15:39:37.230Z,54.00
2018-09-01T15:42:06.025Z,55.10
2018-09-01T15:44:34.619Z,55.70
2018-09-01T15:47:03.328Z,57.90
2018-09-01T15:49:32.597Z,58.70
2018-09-01T15:52:01.717Z,59.70
2018-09-01T15:54:31.061Z,60.00
2018-09-01T15:57:00.082Z,61.50
2018-09-01T15:59:28.713Z,60.90
2018-09-01T16:01:57.533Z,63.00
2018-09-01T16:04:26.129Z,60.30
2018-09-01T16:06:55.001Z,59.60
2018-09-01T16:09:23.625Z,60.60
2018-09-01T16:11:52.676Z,61.00
2018-09-01T16:14:21.741Z,58.40
2018-09-01T16:16:51.006Z,54.70
2018-09-01T16:19:19.596Z,56.50
2018-09-01T16:21:48.426Z,57.80
2018-09-01T16:24:17.909Z,60.10
2018-09-01T16:26:46.717Z,59.80
2018-09-01T16:29:16.277Z,61.30
2018-09-01T16:31:44.855Z,62.00
2018-09-01T16:34:13.571Z,63.30
2018-09-01T16:36:42.921Z,65.40
2018-09-01T16:39:12.205Z,64.70
2018-09-01T16:41:41.465Z,65.60
2018-09-01T16:44:10.483Z,64.30
2018-09-01T16:46:39.571Z,66.10
2018-09-01T16:49:08.588Z,65.10
2018-09-01T16:51:37.808Z,66.60
2018-09-01T16:54:07.460Z,66.90
2018-09-01T16:56:36.919Z,67.80
2018-09-01T16:59:06.021Z,68.20
2018-09-01T17:01:34.707Z,70.10
2018-09-01T17:04:03.312Z,71.70
2018-09-01T17:06:32.200Z,70.50
2018-09-01T17:09:00.936Z,71.40
2018-09-01T17:11:29.681Z,72.90
2018-09-01T17:13:58.283Z,73.50
2018-09-01T17:16:27.238Z,73.50
2018-09-01T17:18:55.821Z,72.50
2018-09-01T17:21:24.723Z,72.10
2018-09-01T17:23:54.168Z,73.60
2018-09-01T17:26:23.020Z,75.10
2018-09-01T17:28:51.651Z,74.80
2018-09-01T17:31:20.205Z,73.40
2018-09-01T17:33:49.076Z,75.20
2018-09-01T17:36:17.708Z,75.50
2018-09-01T17:38:46.662Z,75.50
2018-09-01T17:41:15.402Z,75.60
2018-09-01T17:43:44.022Z,79.00
2018-09-01T17:46:12.706Z,82.30
2018-09-01T17:48:42.460Z,85.10
2018-09-01T17:51:11.303Z,88.20
2018-09-01T17:53:40.025Z,91.10
2018-09-01T17:56:09.500Z,91.50
2018-09-01T17:58:38.351Z,93.60
2018-09-01T18:01:07.622Z,95.60
2018-09-01T18:03:36.797Z,96.20
2018-09-01T18:06:05.872Z,97.00
2018-09-01T18:08:34.748Z,99.90
2018-09-01T18:11:03.410Z,99.90
2018-09-01T18:13:32.071Z,99.90
2018-09-01T18:16:00.813Z,99.90
2018-09-01T18:18:29.648Z,99.90
2018-09-01T18:20:58.428Z,99.90
2018-09-01T18:23:27.293Z,99.90
2018-09-01T18:25:55.971Z,99.90
2018-09-01T18:28:25.270Z,99.90
2018-09-01T18:30:54.045Z,99.90
2018-09-01T18:33:22.683Z,99.90
2018-09-01T18:35:51.609Z,99.90
2018-09-01T18:38:20.141Z,99.90
2018-09-01T18:40:48.927Z,99.90
2018-09-01T18:43:17.568Z,99.90
2018-09-01T18:45:46.114Z,99.90
2018-09-01T18:48:14.890Z,99.90
2018-09-01T18:50:44.428Z,99.90
2018-09-01T18:53:13.099Z,99.90
2018-09-01T18:55:41.679Z,99.90
2018-09-01T18:58:10.227Z,99.90
2018-09-01T19:00:39.088Z,99.90
2018-09-01T19:03:08.046Z,99.90
2018-09-01T19:05:36.795Z,99.90
2018-09-01T19:08:06.041Z,99.90
2018-09-01T19:10:34.700Z,99.90
2018-09-01T19:13:03.484Z,99.90
2018-09-01T19:15:32.361Z,99.90
2018-09-01T19:18:01.095Z,99.90
2018-09-01T19:20:29.782Z,99.90
2018-09-01T19:22:59.327Z,99.90
2018-09-01T19:25:28.483Z,99.90
2018-09-01T19:27:57.333Z,99.90
2018-09-01T19:30:26.064Z,99.90
2018-09-01T19:32:55.208Z,99.90
2018-09-01T19:35:24.004Z,99.90
2018-09-01T19:37:53.170Z,99.90
2018-09-01T19:40:21.893Z,99.90
2018-09-01T19:42:50.465Z,99.90
2018-09-01T19:45:19.405Z,99.90
2018-09-01T19:47:48.742Z,99.90
2018-09-01T19:50:17.534Z,99.90
2018-09-01T19:52:46.540Z,99.90
2018-09-01T19:55:15.392Z,99.90
2018-09-01T19:57:44.487Z,99.90
2018-09-01T20:00:13.319Z,99.90
2018-09-01T20:02:42.087Z,99.90
2018-09-01T20:05:10.979Z,99.90
2018-09-01T20:07:41.064Z,99.90
2018-09-01T20:10:10.678Z,99.90
2018-09-01T20:12:39.421Z,99.90
2018-09-01T20:15:08.918Z,99.90
2018-09-01T20:17:37.619Z,99.90
2018-09-01T20:20:07.436Z,99.90
2018-09-01T20:22:36.248Z,99.90
2018-09-01T20:25:04.925Z,99.90
2018-09-01T20:27:34.237Z,99.90
2018-09-01T20:30:03.260Z,99.90
2018-09-01T20:32:32.600Z,99.90
2018-09-01T20:35:06.588Z,99.90
2018-09-01T20:37:35.247Z,99.90
2018-09-01T20:40:04.073Z,99.90
2018-09-01T20:42:32.848Z,99.90
2018-09-01T20:45:01.701Z,99.90
2018-09-01T20:47:30.564Z,99.90
2018-09-01T20:49:59.315Z,99.90
2018-09-01T20:52:28.274Z,99.90
2018-09-01T20:54:57.490Z,99.90
2018-09-01T20:57:26.717Z,99.90
2018-09-01T20:59:55.321Z,99.90
2018-09-01T21:02:24.037Z,99.90
2018-09-01T21:04:53.178Z,99.90
2018-09-01T21:07:22.715Z,99.90
2018-09-01T21:09:51.366Z,99.90
2018-09-01T21:12:20.690Z,99.90
2018-09-01T21:14:49.348Z,99.90
2018-09-01T21:17:18.520Z,99.90
2018-09-01T21:19:48.026Z,99.90
2018-09-01T21:22:16.610Z,99.90
2018-09-01T21:24:46.557Z,99.90
2018-09-01T21:27:15.298Z,99.90
2018-09-01T21:29:44.760Z,99.90
2018-09-01T21:32:13.351Z,99.90
2018-09-01T21:34:42.243Z,99.90
2018-09-01T21:37:11.635Z,99.90
2018-09-01T21:39:40.393Z,99.90
2018-09-01T21:42:09.064Z,99.90
2018-09-01T21:44:38.209Z,99.90
2018-09-01T21:47:07.537Z,99.90
2018-09-01T21:49:36.431Z,99.90
2018-09-01T21:52:05.573Z,99.90
2018-09-01T21:54:34.586Z,99.90
2018-09-01T21:57:03.487Z,99.90
2018-09-01T21:59:32.511Z,99.90
2018-09-01T22:02:06.362Z,99.90
2018-09-01T22:04:40.318Z,99.90
2018-09-01T22:07:09.811Z,99.90
2018-09-01T22:09:38.407Z,99.90
2018-09-01T22:12:07.036Z,99.90
2018-09-01T22:14:35.568Z,99.90
2018-09-01T22:17:04.345Z,99.90
2018-09-01T22:19:33.109Z,99.90
2018-09-01T22:22:02.301Z,99.90
2018-09-01T22:24:31.738Z,99.90
2018-09-01T22:27:00.675Z,99.90
2018-09-01T22:29:30.165Z,99.90
2018-09-01T22:31:59.305Z,99.90
2018-09-01T22:34:28.580Z,99.90
2018-09-01T22:36:57.896Z,99.90
2018-09-01T22:39:26.861Z,99.90
2018-09-01T22:41:55.757Z,99.90
2018-09-01T22:44:24.427Z,99.90
2018-09-01T22:46:54.552Z,99.90
2018-09-01T22:49:23.953Z,99.90
2018-09-01T22:51:52.618Z,99.90
2018-09-01T22:54:21.268Z,99.90
2018-09-01T22:56:50.076Z,99.90
2018-09-01T22:59:18.740Z,99.90
2018-09-01T23:01:47.944Z,99.90
2018-09-01T23:04:17.148Z,99.90
2018-09-01T23:06:45.868Z,99.90
2018-09-01T23:09:14.993Z,99.90
2018-09-01T23:11:43.796Z,99.90
2018-09-01T23:14:12.329Z,99.90
2018-09-01T23:16:40.985Z,99.90
2018-09-01T23:19:09.603Z,99.90
2018-09-01T23:21:38.111Z,99.90
2018-09-01T23:24:07.016Z,99.90
2018-09-01T23:26:35.656Z,99.90
2018-09-01T23:29:04.497Z,99.90
2018-09-01T23:31:33.317Z,99.90
2018-09-01T23:34:01.873Z,99.90
2018-09-01T23:36:30.507Z,99.90
2018-09-01T23:38:59.080Z,99.90
2018-09-01T23:41:27.641Z,99.90
2018-09-01T23:43:56.528Z,99.90
2018-09-01T23:46:25.099Z,99.90
2018-09-01T23:48:54.398Z,99.90
2018-09-01T23:51:22.927Z,99.90
2018-09-01T23:53:51.981Z,99.90
2018-09-01T23:56:21.318Z,99.90
2018-09-01T23:58:49.922Z,99.90
